LTAD/ANK METAR and TAF weather

Enter ICAO airport designator
Station Type Date Time Source
LTAD METAR 2019/04/25 08:50 UTC NOAA

LTAD 250850Z VRB04KT CAVOK 18/06 Q1026 NOSIG RMK RWY29 27005KT 210V310


Station Type Date Time Source
LTAD Decoded METAR 2019/04/25 08:50 UTC NOAA

Ankara / Etimesgut, Turkey (LTAD) 39-57N 032-41E 806M
Apr 25, 2019 - 04:50 AM EDT / 2019.04.25 0850 UTC
Wind: Variable at 5 MPH (4 KT):0
Visibility: greater than 7 mile(s):0
Temperature: 64 F (18 C)
Dew Point: 42 F (6 C)
Relative Humidity: 45%
Pressure (altimeter): 30.30 in. Hg (1026 hPa)
ob: LTAD 250850Z VRB04KT CAVOK 18/06 Q1026 NOSIG RMK RWY29 27005KT 210V310
cycle: 9

Station Type Date Time Source
LTAD TAF UTC NOAA

Error!

Example: see airport list